METAR AND TAF INFORMATION
METAR FOR EDDP
ADDS - METARS form results

(1746 UTC 22 August 2019)
Data provider http://aviationweather.gov/metar/data/
 
METAR text: EDDP 221720Z 15004KT 050V180 CAVOK 25/08 Q1025 NOSIG
Conditions at: EDDP (LEIPZIG/SCHKEUDI, DE) observed 1720 UTC 22 August 2019
Temperature: 25.0°C (77°F)
Dewpoint: 8.0°C (46°F) [RH = 34%]
Pressure (altimeter): 30.27 inches Hg (1025.0 mb)
Winds: from the SSE (150 degrees) at 5 MPH (4 knots; 2.1 m/s)
Visibility: 6 or more miles (10+ km)
Ceiling: ceiling and visibility are OK
Clouds: unknown
Weather: no significant weather observed at this time

METAR text: EDDP 221650Z VRB02KT CAVOK 25/07 Q1025 NOSIG
Conditions at: EDDP (LEIPZIG/SCHKEUDI, DE) observed 1650 UTC 22 August 2019
Temperature: 25.0°C (77°F)
Dewpoint: 7.0°C (45°F) [RH = 32%]
Pressure (altimeter): 30.27 inches Hg (1025.0 mb)
Winds: variable direction winds at 2 MPH (2 knots; 1.0 m/s)
Visibility: 6 or more miles (10+ km)
Ceiling: ceiling and visibility are OK
Clouds: unknown
Weather: no significant weather observed at this time

Forecast for: EDDP (LEIPZIG/SCHKEUDI, DE)
Text: TAF EDDP 221700Z 2218/2318 VRB03KT CAVOK
Forecast period: 1800 UTC 22 August 2019 to 0700 UTC 23 August 2019
Forecast type: FROM: standard forecast or significant change
Winds: variable direction winds at 3 MPH (3 knots; 1.5 m/s)
Visibility: 6 or more miles 10+ km)
Ceiling: unknown
Clouds: missing
Weather: NSW  (no significant weather)
Text: BECMG 2307/2310 07005KT
Forecast period: 0700 to 1800 UTC 23 August 2019
Forecast type: BECOMING: Conditions expected to become as follows by 1000 UTC 23 August 2019
Winds: from the ENE (70 degrees) at 6 MPH (5 knots; 2.6 m/s)
Visibility: 6 or more miles 10+ km)
Ceiling: unknown
Clouds: missing
Weather: NSW  (no significant weather)

 AIRPORT MAP

 RUNWAY INFORMATION
Runway 08L Runway length 11811 ft Runway width 148 ft
Runway elevation 418 ft Runway displaced threshold 0 ft Runway heading 86
Runway 26R Runway length 11811 ft Runway width 148 ft
Runway elevation 448 ft Runway displaced threshold 0 ft Runway heading 266
Runway 08R Runway length 11811 ft Runway width 198 ft
Runway elevation 0 ft Runway displaced threshold 0 ft Runway heading 86
Runway 26L Runway length 11811 ft Runway width 198 ft
Runway elevation 0 ft Runway displaced threshold 0 ft Runway heading 266

 AIRPORT FREQUENCIES
Type APP Name MUNCHEN RA Frequency 124.175 MHZ
Type ATIS Name ATIS Frequency 123.95 MHZ
Type GND Name GND Frequency 121.8 MHZ
Type INFO Name MUNCHEN IN Frequency 125.8 MHZ
Type TWR Name TWR Frequency 121.1 MHZ

 AIRPORT NEAR NAVIGATION AIDS
Type DME Name Leipzig South Frequency 112150 KHZ
Type VOR-DME Name Leipzig Frequency 115850 KHZ
Type DME Name Leipzig North Frequency 113500 KHZ
Type NDB Name Leipzig Frequency 357 KHZ
Type NDB Name Leipzig Frequency 434 KHZ
Type NDB Name Leipzig Frequency 340 KHZ



Powered by Virtual Airlines Manager [v2.6.2]